createdAt,value
2022-08-01T00:00:08.914Z,105200.38
2022-08-01T00:02:38.941Z,105207.44
2022-08-01T00:05:07.173Z,105220.72
2022-08-01T00:07:35.192Z,105224.25
2022-08-01T00:10:03.417Z,105232.19
2022-08-01T00:12:30.231Z,105236.63
2022-08-01T00:14:57.063Z,105224.13
2022-08-01T00:17:23.853Z,105225.94
2022-08-01T00:19:50.654Z,105226.78
2022-08-01T00:22:17.712Z,105221.41
2022-08-01T00:24:44.529Z,105214.28
2022-08-01T00:27:11.284Z,105186.81
2022-08-01T00:30:04.725Z,105175.28
2022-08-01T00:32:25.139Z,105160.25
2022-08-01T00:34:51.900Z,105146.06
2022-08-01T00:37:18.875Z,105121.22
2022-08-01T00:39:45.701Z,105105.28
2022-08-01T00:42:13.475Z,105089.38
2022-08-01T00:44:40.903Z,105061.00
2022-08-01T00:47:08.781Z,105037.06
2022-08-01T00:49:36.392Z,105007.84
2022-08-01T00:52:05.832Z,104988.38
2022-08-01T00:54:33.674Z,104967.09
2022-08-01T00:57:01.097Z,104961.81
2022-08-01T00:59:28.383Z,104929.00
2022-08-01T01:01:55.498Z,104896.19
2022-08-01T01:04:22.986Z,104854.53
2022-08-01T01:07:14.957Z,104814.72
2022-08-01T01:10:03.391Z,104760.66
2022-08-01T01:13:06.306Z,104714.59
2022-08-01T01:15:47.572Z,104677.41
2022-08-01T01:18:21.408Z,104632.22
2022-08-01T01:21:01.217Z,104604.78
2022-08-01T01:23:41.506Z,104568.44
2022-08-01T01:26:25.468Z,104534.78
2022-08-01T01:29:59.334Z,104510.00
2022-08-01T01:32:44.514Z,104499.34
2022-08-01T01:35:20.812Z,104486.94
2022-08-01T01:37:50.888Z,104467.47
2022-08-01T01:40:20.878Z,104435.59
2022-08-01T01:42:48.791Z,104418.78
2022-08-01T01:45:16.805Z,104398.38
2022-08-01T01:47:45.030Z,104378.94
2022-08-01T01:50:13.318Z,104356.81
2022-08-01T01:52:43.279Z,104338.25
2022-08-01T01:55:11.347Z,104317.91
2022-08-01T01:57:41.502Z,104325.91
2022-08-01T02:00:11.409Z,104315.31
2022-08-01T02:02:39.694Z,104317.97
2022-08-01T02:05:09.480Z,104322.41
2022-08-01T02:07:37.917Z,104333.94
2022-08-01T02:10:06.214Z,104339.25
2022-08-01T02:12:37.483Z,104353.41
2022-08-01T02:15:05.668Z,104363.16
2022-08-01T02:17:32.860Z,104375.50
2022-08-01T02:19:59.942Z,104390.56
2022-08-01T02:22:32.389Z,104410.94
2022-08-01T02:25:07.216Z,104438.34
2022-08-01T02:27:51.158Z,104449.84
2022-08-01T02:30:18.550Z,104479.03
2022-08-01T02:33:03.039Z,104490.53
2022-08-01T02:35:34.616Z,104495.88
2022-08-01T02:38:27.783Z,104492.31
2022-08-01T02:40:58.931Z,104481.72
2022-08-01T02:43:29.564Z,104481.72
2022-08-01T02:46:01.391Z,104483.50
2022-08-01T02:48:31.175Z,104472.91
2022-08-01T02:51:01.199Z,104468.47
2022-08-01T02:53:43.030Z,104470.22
2022-08-01T02:56:12.461Z,104465.81
2022-08-01T02:58:41.562Z,104466.69
2022-08-01T03:01:10.608Z,104438.41
2022-08-01T03:03:39.029Z,104412.75
2022-08-01T03:06:07.289Z,104412.75
2022-08-01T03:08:36.279Z,104400.38
2022-08-01T03:11:04.830Z,104376.50
2022-08-01T03:13:33.180Z,104377.41
2022-08-01T03:16:03.432Z,104378.25
2022-08-01T03:18:31.605Z,104364.13
2022-08-01T03:20:59.925Z,104357.91
2022-08-01T03:23:37.738Z,104325.19
2022-08-01T03:26:07.109Z,104304.88
2022-08-01T03:28:34.578Z,104279.25
2022-08-01T03:31:03.584Z,104254.50
2022-08-01T03:33:30.488Z,104236.84
2022-08-01T03:36:01.197Z,104238.59
2022-08-01T03:38:34.336Z,104235.06
2022-08-01T03:41:07.202Z,104217.41
2022-08-01T03:43:39.497Z,104182.06
2022-08-01T03:46:09.121Z,104163.53
2022-08-01T03:48:44.146Z,104128.22
2022-08-01T03:51:13.393Z,104102.59
2022-08-01T03:53:43.124Z,104093.75
2022-08-01T03:56:13.809Z,104084.03
2022-08-01T03:58:42.307Z,104077.00
2022-08-01T04:01:15.567Z,104084.03
2022-08-01T04:03:44.178Z,104082.28
2022-08-01T04:06:11.635Z,104078.75
2022-08-01T04:08:39.443Z,104069.06
2022-08-01T04:11:06.275Z,104059.34
2022-08-01T04:13:37.079Z,104044.34
2022-08-01T04:16:04.666Z,104038.16
2022-08-01T04:18:31.447Z,104039.06
2022-08-01T04:20:58.988Z,104024.06
2022-08-01T04:23:28.580Z,104017.00
2022-08-01T04:25:57.738Z,104016.16
2022-08-01T04:28:25.798Z,104004.66
2022-08-01T04:31:01.623Z,103998.50
2022-08-01T04:33:30.940Z,104007.31
2022-08-01T04:36:03.704Z,104007.34
2022-08-01T04:38:34.287Z,104013.53
2022-08-01T04:41:09.296Z,104006.44
2022-08-01T04:43:37.944Z,104004.63
2022-08-01T04:46:06.530Z,103996.63
2022-08-01T04:48:35.554Z,103990.38
2022-08-01T04:51:02.329Z,103938.25
2022-08-01T04:53:29.209Z,103896.72
2022-08-01T04:55:56.661Z,103833.97
2022-08-01T04:58:23.514Z,103792.41
2022-08-01T05:00:50.620Z,103752.59
2022-08-01T05:03:17.552Z,103717.16
2022-08-01T05:05:44.367Z,103683.53
2022-08-01T05:08:11.168Z,103644.66
2022-08-01T05:10:37.967Z,103612.75
2022-08-01T05:13:04.778Z,103591.50
2022-08-01T05:15:31.974Z,103570.91
2022-08-01T05:17:58.767Z,103552.09
2022-08-01T05:20:25.576Z,103528.81
2022-08-01T05:22:52.634Z,103484.56
2022-08-01T05:25:20.618Z,103444.50
2022-08-01T05:28:06.201Z,103390.47
2022-08-01T05:30:32.950Z,103337.28
2022-08-01T05:32:59.737Z,103308.78
2022-08-01T05:35:48.497Z,103278.47
2022-08-01T05:38:15.034Z,103224.50
2022-08-01T05:40:41.990Z,103197.59
2022-08-01T05:43:08.839Z,103155.00
2022-08-01T05:45:36.048Z,103122.00
2022-08-01T05:48:02.815Z,103087.09
2022-08-01T05:50:29.583Z,103038.53
2022-08-01T05:52:56.289Z,102945.31
2022-08-01T05:55:23.038Z,102901.00
2022-08-01T05:57:49.784Z,102862.84
2022-08-01T06:00:17.158Z,102828.22
2022-08-01T06:02:44.425Z,102811.41
2022-08-01T06:05:13.478Z,102788.25
2022-08-01T06:07:41.177Z,102761.09
2022-08-01T06:10:08.900Z,102716.97
2022-08-01T06:12:36.821Z,102694.25
2022-08-01T06:15:05.262Z,102663.41
2022-08-01T06:17:32.629Z,102634.25
2022-08-01T06:19:59.545Z,102626.28
2022-08-01T06:22:26.362Z,102599.16
2022-08-01T06:24:53.270Z,102586.19
2022-08-01T06:27:21.895Z,102564.69
2022-08-01T06:29:51.219Z,102549.09
2022-08-01T06:32:26.443Z,102537.66
2022-08-01T06:34:55.777Z,102530.81
2022-08-01T06:37:23.756Z,102487.84
2022-08-01T06:39:50.984Z,102452.50
2022-08-01T06:42:18.575Z,102426.00
2022-08-01T06:44:45.796Z,102360.28
2022-08-01T06:47:12.891Z,102327.69
2022-08-01T06:49:39.766Z,102305.25
2022-08-01T06:52:07.003Z,102298.09
2022-08-01T06:54:34.208Z,102216.47
2022-08-01T06:57:01.054Z,102201.88
2022-08-01T06:59:27.956Z,102181.69
2022-08-01T07:01:54.756Z,102122.97
2022-08-01T07:04:21.702Z,102105.50
2022-08-01T07:06:48.544Z,102122.91
2022-08-01T07:09:15.803Z,102121.00
2022-08-01T07:11:42.670Z,102116.94
2022-08-01T07:14:09.531Z,102075.75
2022-08-01T07:16:36.415Z,102045.50
2022-08-01T07:19:03.578Z,102013.81
2022-08-01T07:21:40.521Z,102026.25
2022-08-01T07:24:12.936Z,102004.00
2022-08-01T07:26:53.087Z,101975.44
2022-08-01T07:29:25.804Z,101968.41
2022-08-01T07:31:57.166Z,101977.72
2022-08-01T07:34:25.143Z,101975.72
2022-08-01T07:36:53.253Z,101970.09
2022-08-01T07:39:20.792Z,101985.25
2022-08-01T07:42:06.342Z,101985.84
2022-08-01T07:44:34.787Z,101991.00
2022-08-01T07:47:01.675Z,101999.34
2022-08-01T07:49:28.725Z,101987.16
2022-08-01T07:52:13.581Z,101989.09
2022-08-01T07:54:40.549Z,101994.88
2022-08-01T07:57:08.065Z,101990.75
2022-08-01T07:59:35.177Z,101989.91
2022-08-01T08:02:02.324Z,101993.19
2022-08-01T08:04:29.434Z,101990.25
2022-08-01T08:06:56.329Z,101996.84
2022-08-01T08:09:23.903Z,101987.78
2022-08-01T08:11:50.785Z,101998.19
2022-08-01T08:14:18.639Z,101994.16
2022-08-01T08:16:46.395Z,101992.66
2022-08-01T08:19:13.263Z,102002.56
2022-08-01T08:21:40.441Z,102003.00
2022-08-01T08:24:20.439Z,101994.66
2022-08-01T08:26:58.628Z,101996.66
2022-08-01T08:29:27.284Z,101999.03
2022-08-01T08:31:58.762Z,101979.28
2022-08-01T08:34:27.493Z,101974.56
2022-08-01T08:36:56.308Z,101988.31
2022-08-01T08:39:24.529Z,101992.59
2022-08-01T08:41:51.379Z,101985.81
2022-08-01T08:44:19.170Z,101993.13
2022-08-01T08:46:49.529Z,101996.41
2022-08-01T08:49:35.892Z,101998.44
2022-08-01T08:52:05.453Z,101999.19
2022-08-01T08:54:33.548Z,101996.34
2022-08-01T08:57:01.969Z,101992.06
2022-08-01T08:59:29.492Z,101986.59
2022-08-01T09:01:57.490Z,101990.03
2022-08-01T09:04:26.670Z,101985.59
2022-08-01T09:06:54.997Z,102002.69
2022-08-01T09:09:23.068Z,101992.09
2022-08-01T09:12:06.995Z,101992.56
2022-08-01T09:14:36.171Z,102003.66
2022-08-01T09:17:09.698Z,102003.34
2022-08-01T09:19:40.170Z,102011.25
2022-08-01T09:22:11.575Z,102010.72
2022-08-01T09:24:40.301Z,102011.72
2022-08-01T09:27:22.523Z,102022.56
2022-08-01T09:30:01.244Z,102022.31
2022-08-01T09:32:35.132Z,102023.41
2022-08-01T09:35:43.422Z,102026.13
2022-08-01T09:38:23.742Z,102021.75
2022-08-01T09:40:58.281Z,102031.13
2022-08-01T09:43:28.109Z,102038.94
2022-08-01T09:45:57.860Z,102041.34
2022-08-01T09:48:28.581Z,102027.28
2022-08-01T09:51:04.398Z,102032.09
2022-08-01T09:54:02.529Z,102034.03
2022-08-01T09:56:38.461Z,102033.47
2022-08-01T09:59:06.127Z,102041.97
2022-08-01T10:02:02.365Z,102044.97
2022-08-01T10:04:29.525Z,102044.13
2022-08-01T10:07:08.212Z,102029.06
2022-08-01T10:09:40.687Z,102033.25
2022-08-01T10:12:09.234Z,102034.75
2022-08-01T10:14:45.997Z,102039.38
2022-08-01T10:17:18.391Z,102034.78
2022-08-01T10:19:47.497Z,102040.41
2022-08-01T10:22:18.803Z,102042.25
2022-08-01T10:24:48.235Z,102039.84
2022-08-01T10:27:24.554Z,102036.09
2022-08-01T10:30:14.266Z,102034.47
2022-08-01T10:32:51.088Z,102044.41
2022-08-01T10:35:19.725Z,102033.03
2022-08-01T10:38:10.925Z,102034.25
2022-08-01T10:40:41.371Z,102031.19
2022-08-01T10:43:11.018Z,102047.38
2022-08-01T10:45:38.465Z,102045.00
2022-08-01T10:48:14.541Z,102040.94
2022-08-01T10:50:53.710Z,102041.59
2022-08-01T10:53:31.584Z,102049.47
2022-08-01T10:56:12.927Z,102053.44
2022-08-01T10:58:44.487Z,102053.66
2022-08-01T11:01:30.074Z,102048.97
2022-08-01T11:04:04.265Z,102043.22
2022-08-01T11:06:34.102Z,102046.69
2022-08-01T11:09:24.769Z,102049.03
2022-08-01T11:12:13.468Z,102047.91
2022-08-01T11:14:59.586Z,102047.50
2022-08-01T11:17:42.002Z,102048.06
2022-08-01T11:20:21.629Z,102044.19
2022-08-01T11:22:59.705Z,102062.34
2022-08-01T11:26:05.165Z,102062.84
2022-08-01T11:28:37.125Z,102056.81
2022-08-01T11:31:08.075Z,102056.28
2022-08-01T11:33:47.097Z,102062.09
2022-08-01T11:36:15.054Z,102066.00
2022-08-01T11:38:47.303Z,102070.69
2022-08-01T11:41:17.811Z,102064.94
2022-08-01T11:44:10.123Z,102077.56
2022-08-01T11:46:56.909Z,102085.78
2022-08-01T11:49:49.373Z,102074.25
2022-08-01T11:52:26.171Z,102078.06
2022-08-01T11:54:54.185Z,102069.00
2022-08-01T11:57:34.233Z,102063.09
2022-08-01T12:00:08.576Z,102060.88
2022-08-01T12:02:41.701Z,102048.28
2022-08-01T12:05:15.529Z,102058.34
2022-08-01T12:07:44.389Z,102068.72
2022-08-01T12:10:13.981Z,102066.78
2022-08-01T12:12:49.884Z,102059.97
2022-08-01T12:15:17.339Z,102063.16
2022-08-01T12:17:59.087Z,102056.56
2022-08-01T12:20:32.293Z,102065.66
2022-08-01T12:23:01.817Z,102059.00
2022-08-01T12:25:29.439Z,102056.81
2022-08-01T12:28:00.194Z,102070.66
2022-08-01T12:30:27.927Z,102066.31
2022-08-01T12:32:55.449Z,102067.03
2022-08-01T12:35:25.401Z,102063.84
2022-08-01T12:37:55.233Z,102050.81
2022-08-01T12:40:27.943Z,102052.72
2022-08-01T12:43:09.528Z,102053.09
2022-08-01T12:45:54.548Z,102046.75
2022-08-01T12:48:25.093Z,102048.78
2022-08-01T12:50:53.559Z,102051.63
2022-08-01T12:53:22.180Z,102049.25
2022-08-01T12:55:58.564Z,102058.69
2022-08-01T12:58:34.526Z,102049.56
2022-08-01T13:01:07.260Z,102052.38
2022-08-01T13:03:34.258Z,102045.59
2022-08-01T13:06:01.445Z,102049.00
2022-08-01T13:08:35.190Z,102041.75
2022-08-01T13:11:09.541Z,102028.56
2022-08-01T13:13:45.668Z,102034.63
2022-08-01T13:16:25.811Z,102040.22
2022-08-01T13:18:59.514Z,102044.09
2022-08-01T13:21:28.560Z,102048.63
2022-08-01T13:24:13.214Z,102042.88
2022-08-01T13:26:54.333Z,102043.09
2022-08-01T13:29:30.007Z,102064.81
2022-08-01T13:31:57.102Z,102045.94
2022-08-01T13:34:35.106Z,102057.69
2022-08-01T13:37:02.991Z,102059.44
2022-08-01T13:39:45.504Z,102054.16
2022-08-01T13:42:18.995Z,102067.28
2022-08-01T13:44:46.635Z,102067.78
2022-08-01T13:47:15.661Z,102051.56
2022-08-01T13:49:44.515Z,102059.22
2022-08-01T13:52:11.646Z,102049.91
2022-08-01T13:54:38.499Z,102045.34
2022-08-01T13:57:05.820Z,102053.38
2022-08-01T13:59:32.623Z,102061.31
2022-08-01T14:01:59.485Z,102052.34
2022-08-01T14:04:26.321Z,102053.88
2022-08-01T14:06:53.195Z,102060.88
2022-08-01T14:09:24.687Z,102045.69
2022-08-01T14:11:52.030Z,102042.63
2022-08-01T14:14:18.938Z,102045.22
2022-08-01T14:16:46.032Z,102045.84
2022-08-01T14:19:13.399Z,102049.13
2022-08-01T14:21:40.172Z,102062.66
2022-08-01T14:24:07.737Z,102060.22
2022-08-01T14:26:34.958Z,102055.03
2022-08-01T14:29:03.334Z,102055.88
2022-08-01T14:31:34.103Z,102051.34
2022-08-01T14:34:01.325Z,102048.53
2022-08-01T14:36:31.543Z,102041.38
2022-08-01T14:39:00.278Z,102045.94
2022-08-01T14:41:28.563Z,102039.50
2022-08-01T14:43:57.759Z,102049.50
2022-08-01T14:46:24.581Z,102039.97
2022-08-01T14:48:51.495Z,102042.09
2022-08-01T14:51:20.306Z,102059.44
2022-08-01T14:53:50.908Z,102058.00
2022-08-01T14:56:20.387Z,102051.34
2022-08-01T14:58:47.259Z,102066.84
2022-08-01T15:01:15.917Z,102054.59
2022-08-01T15:03:42.862Z,102052.41
2022-08-01T15:06:12.212Z,102052.69
2022-08-01T15:08:39.185Z,102055.22
2022-08-01T15:11:06.197Z,102063.03
2022-08-01T15:13:33.010Z,102068.84
2022-08-01T15:16:00.476Z,102070.16
2022-08-01T15:18:28.999Z,102068.84
2022-08-01T15:20:58.213Z,102059.16
2022-08-01T15:23:25.100Z,102051.75
2022-08-01T15:25:51.920Z,102057.84
2022-08-01T15:28:18.831Z,102055.56
2022-08-01T15:30:46.127Z,102052.41
2022-08-01T15:33:13.427Z,102064.38
2022-08-01T15:35:40.767Z,102061.38
2022-08-01T15:38:07.537Z,102056.53
2022-08-01T15:40:35.529Z,102060.56
2022-08-01T15:43:02.915Z,102062.81
2022-08-01T15:45:46.779Z,102055.00
2022-08-01T15:48:15.205Z,102056.97
2022-08-01T15:50:42.081Z,102061.09
2022-08-01T15:53:08.958Z,102055.34
2022-08-01T15:55:38.136Z,102062.66
2022-08-01T15:58:06.077Z,102052.22
2022-08-01T16:00:38.679Z,102060.78
2022-08-01T16:03:08.094Z,102062.50
2022-08-01T16:05:42.544Z,102066.19
2022-08-01T16:08:14.116Z,102073.91
2022-08-01T16:10:41.910Z,102076.50
2022-08-01T16:13:09.317Z,102071.31
2022-08-01T16:15:37.832Z,102067.38
2022-08-01T16:18:10.671Z,102084.34
2022-08-01T16:20:42.970Z,102087.25
2022-08-01T16:23:11.313Z,102087.34
2022-08-01T16:25:38.173Z,102083.16
2022-08-01T16:28:05.254Z,102093.25
2022-08-01T16:30:32.094Z,102098.44
2022-08-01T16:33:00.054Z,102093.88
2022-08-01T16:35:35.967Z,102098.03
2022-08-01T16:38:04.469Z,102101.47
2022-08-01T16:40:31.399Z,102107.41
2022-08-01T16:43:14.589Z,102100.19
2022-08-01T16:45:43.103Z,102101.78
2022-08-01T16:48:12.054Z,102098.31
2022-08-01T16:50:40.165Z,102107.34
2022-08-01T16:53:07.041Z,102101.22
2022-08-01T16:55:50.165Z,102100.09
2022-08-01T16:58:27.276Z,102093.75
2022-08-01T17:00:56.895Z,102098.03
2022-08-01T17:03:51.332Z,102104.94
2022-08-01T17:06:13.207Z,102093.59
2022-08-01T17:08:46.468Z,102095.53
2022-08-01T17:11:15.159Z,102089.09
2022-08-01T17:13:42.956Z,102084.28
2022-08-01T17:16:09.782Z,102096.13
2022-08-01T17:18:36.625Z,102090.97
2022-08-01T17:21:03.772Z,102098.34
2022-08-01T17:23:31.865Z,102088.53
2022-08-01T17:25:59.734Z,102083.00
2022-08-01T17:28:27.411Z,102085.22
2022-08-01T17:30:54.537Z,102100.09
2022-08-01T17:33:21.339Z,102091.75
2022-08-01T17:35:48.410Z,102091.88
2022-08-01T17:38:15.215Z,102100.00
2022-08-01T17:40:43.825Z,102093.56
2022-08-01T17:43:10.635Z,102092.81
2022-08-01T17:45:50.730Z,102089.00
2022-08-01T17:48:19.375Z,102100.56
2022-08-01T17:50:47.765Z,102104.25
2022-08-01T17:53:15.871Z,102101.59
2022-08-01T17:55:55.374Z,102112.41
2022-08-01T17:58:32.996Z,102112.47
2022-08-01T18:01:13.301Z,102109.50
2022-08-01T18:03:41.376Z,102111.81
2022-08-01T18:06:09.834Z,102108.75
2022-08-01T18:08:40.238Z,102108.66
2022-08-01T18:11:08.125Z,102114.59
2022-08-01T18:13:36.694Z,102121.75
2022-08-01T18:16:09.216Z,102136.38
2022-08-01T18:18:36.736Z,102132.31
2022-08-01T18:21:03.712Z,102137.09
2022-08-01T18:23:32.017Z,102141.81
2022-08-01T18:26:01.514Z,102150.28
2022-08-01T18:28:35.071Z,102160.34
2022-08-01T18:31:03.900Z,102162.44
2022-08-01T18:33:30.902Z,102166.13
2022-08-01T18:36:03.662Z,102166.38
2022-08-01T18:38:35.190Z,102174.63
2022-08-01T18:41:05.526Z,102186.38
2022-08-01T18:43:32.270Z,102198.16
2022-08-01T18:45:59.066Z,102209.75
2022-08-01T18:48:25.851Z,102224.16
2022-08-01T18:50:54.125Z,102225.34
2022-08-01T18:53:23.721Z,102233.75
2022-08-01T18:55:50.583Z,102255.34
2022-08-01T18:58:17.345Z,102266.28
2022-08-01T19:00:44.153Z,102286.72
2022-08-01T19:03:11.102Z,102304.59
2022-08-01T19:05:38.014Z,102311.03
2022-08-01T19:08:07.746Z,102330.72
2022-08-01T19:10:42.225Z,102360.94
2022-08-01T19:13:09.552Z,102387.44
2022-08-01T19:15:36.613Z,102407.03
2022-08-01T19:18:04.186Z,102423.91
2022-08-01T19:20:31.262Z,102451.25
2022-08-01T19:22:58.440Z,102470.78
2022-08-01T19:25:25.809Z,102494.66
2022-08-01T19:27:52.746Z,102515.00
2022-08-01T19:30:20.006Z,102540.63
2022-08-01T19:32:48.993Z,102560.91
2022-08-01T19:35:16.982Z,102585.59
2022-08-01T19:37:50.797Z,102611.19
2022-08-01T19:40:27.353Z,102637.66
2022-08-01T19:42:56.655Z,102659.72
2022-08-01T19:45:24.612Z,102688.84
2022-08-01T19:47:56.476Z,102709.13
2022-08-01T19:50:28.282Z,102734.63
2022-08-01T19:53:02.858Z,102763.69
2022-08-01T19:55:39.457Z,102788.28
2022-08-01T19:58:26.459Z,102807.66
2022-08-01T20:00:54.808Z,102831.41
2022-08-01T20:03:22.692Z,102855.16
2022-08-01T20:05:51.135Z,102870.13
2022-08-01T20:08:19.746Z,102884.16
2022-08-01T20:10:47.625Z,102898.25
2022-08-01T20:13:14.444Z,102914.09
2022-08-01T20:15:44.830Z,102929.91
2022-08-01T20:18:11.679Z,102943.94
2022-08-01T20:20:38.762Z,102952.75
2022-08-01T20:23:18.153Z,102965.94
2022-08-01T20:25:49.512Z,102985.28
2022-08-01T20:28:21.720Z,103000.22
2022-08-01T20:30:54.289Z,103021.28
2022-08-01T20:33:21.360Z,103037.09
2022-08-01T20:35:53.325Z,103062.53
2022-08-01T20:38:23.196Z,103097.63
2022-08-01T20:40:53.237Z,103110.81
2022-08-01T20:43:22.012Z,103121.34
2022-08-01T20:45:50.466Z,103148.56
2022-08-01T20:48:17.961Z,103170.53
2022-08-01T20:51:05.486Z,103185.44
2022-08-01T20:53:36.710Z,103188.94
2022-08-01T20:56:08.705Z,103196.84
2022-08-01T20:59:09.728Z,103191.56
2022-08-01T21:01:43.894Z,103190.69
2022-08-01T21:04:13.478Z,103181.91
2022-08-01T21:06:49.840Z,103178.41
2022-08-01T21:09:22.582Z,103165.25
2022-08-01T21:11:57.199Z,103159.09
2022-08-01T21:14:52.134Z,103155.59
2022-08-01T21:17:40.271Z,103145.94
2022-08-01T21:20:08.439Z,103145.06
2022-08-01T21:22:59.971Z,103154.72
2022-08-01T21:25:30.872Z,103167.91
2022-08-01T21:27:58.234Z,103178.44
2022-08-01T21:30:25.528Z,103201.22
2022-08-01T21:32:53.110Z,103194.19
2022-08-01T21:35:22.453Z,103189.75
2022-08-01T21:37:52.316Z,103176.56
2022-08-01T21:40:22.010Z,103148.44
2022-08-01T21:42:51.326Z,103129.97
2022-08-01T21:45:22.326Z,103094.91
2022-08-01T21:47:50.396Z,103084.44
2022-08-01T21:50:17.244Z,103059.84
2022-08-01T21:52:46.398Z,103038.81
2022-08-01T21:55:36.576Z,103027.41
2022-08-01T21:58:19.333Z,103029.19
2022-08-01T22:00:53.447Z,103025.69
2022-08-01T22:03:24.568Z,103019.56
2022-08-01T22:05:53.955Z,103015.16
2022-08-01T22:08:29.629Z,103014.31
2022-08-01T22:11:04.114Z,103027.47
2022-08-01T22:13:31.165Z,103032.75
2022-08-01T22:15:58.914Z,103040.69
2022-08-01T22:18:27.730Z,103038.03
2022-08-01T22:20:55.722Z,103043.31
2022-08-01T22:23:23.066Z,103050.34
2022-08-01T22:25:55.117Z,103053.00
2022-08-01T22:28:23.720Z,103058.25
2022-08-01T22:30:51.774Z,103068.78
2022-08-01T22:33:19.520Z,103081.91
2022-08-01T22:35:49.043Z,103103.84
2022-08-01T22:38:21.243Z,103119.63
2022-08-01T22:40:51.851Z,103127.53
2022-08-01T22:44:03.646Z,103139.84
2022-08-01T22:46:53.004Z,103145.06
2022-08-01T22:49:23.020Z,103153.84
2022-08-01T22:51:54.993Z,103147.69
2022-08-01T22:54:39.245Z,103147.69
2022-08-01T22:57:12.268Z,103134.56
2022-08-01T22:59:46.829Z,103132.81
2022-08-01T23:02:16.288Z,103130.16
2022-08-01T23:04:46.746Z,103122.25
2022-08-01T23:07:23.774Z,103123.16
2022-08-01T23:09:54.941Z,103116.13
2022-08-01T23:12:27.502Z,103108.22
2022-08-01T23:14:56.431Z,103111.75
2022-08-01T23:17:29.478Z,103099.47
2022-08-01T23:19:58.817Z,103103.84
2022-08-01T23:22:30.162Z,103100.34
2022-08-01T23:25:04.343Z,103105.63
2022-08-01T23:27:51.661Z,103109.13
2022-08-01T23:30:26.838Z,103112.63
2022-08-01T23:32:54.504Z,103121.41
2022-08-01T23:35:21.618Z,103135.41
2022-08-01T23:37:51.100Z,103131.88
2022-08-01T23:40:18.783Z,103116.09
2022-08-01T23:42:45.680Z,103110.84
2022-08-01T23:45:12.568Z,103109.06
2022-08-01T23:47:39.718Z,103109.03
2022-08-01T23:50:07.863Z,103116.06
2022-08-01T23:52:39.540Z,103123.06
2022-08-01T23:55:15.667Z,103129.19
2022-08-01T23:57:43.071Z,103137.09
